createdAt,value
2024-01-11T00:01:46.610Z,-9.81
2024-01-11T00:04:48.610Z,-9.85
2024-01-11T00:07:50.428Z,-10.98
2024-01-11T00:10:52.409Z,-9.95
2024-01-11T00:13:55.789Z,-9.89
2024-01-11T00:16:57.605Z,-9.70
2024-01-11T00:19:59.409Z,-10.14
2024-01-11T00:23:01.180Z,-9.91
2024-01-11T00:26:02.996Z,-9.75
2024-01-11T00:29:07.087Z,-9.96
2024-01-11T00:32:09.007Z,-9.91
2024-01-11T00:35:10.770Z,-10.00
2024-01-11T00:38:12.475Z,-9.96
2024-01-11T00:41:14.396Z,-9.95
2024-01-11T00:44:17.932Z,-10.53
2024-01-11T00:47:19.923Z,-9.77
2024-01-11T00:50:21.705Z,-10.57
2024-01-11T00:53:23.678Z,-9.48
2024-01-11T00:56:25.511Z,-9.19
2024-01-11T00:59:28.930Z,-8.91
2024-01-11T01:02:30.871Z,-8.50
2024-01-11T01:05:32.850Z,-7.85
2024-01-11T01:08:34.917Z,-7.50
2024-01-11T01:11:36.912Z,-9.04
2024-01-11T01:14:40.547Z,-7.39
2024-01-11T01:17:42.645Z,-7.72
2024-01-11T01:20:44.588Z,-8.08
2024-01-11T01:23:46.783Z,-8.75
2024-01-11T01:26:48.618Z,-8.57
2024-01-11T01:29:51.853Z,-8.71
2024-01-11T01:32:53.976Z,-9.12
2024-01-11T01:35:55.849Z,-8.94
2024-01-11T01:38:57.556Z,-9.95
2024-01-11T01:41:59.507Z,-9.33
2024-01-11T01:45:02.694Z,-9.20
2024-01-11T01:48:05.417Z,-9.11
2024-01-11T01:51:08.017Z,-9.61
2024-01-11T01:54:10.334Z,-8.61
2024-01-11T01:57:13.425Z,-8.44
2024-01-11T02:00:17.403Z,-8.77
2024-01-11T02:03:19.545Z,-8.53
2024-01-11T02:06:23.882Z,-8.47
2024-01-11T02:09:25.900Z,-8.76
2024-01-11T02:12:27.916Z,-8.38
2024-01-11T02:15:31.436Z,-8.27
2024-01-11T02:18:33.381Z,-9.18
2024-01-11T02:21:36.041Z,-8.16
2024-01-11T02:24:39.427Z,-8.42
2024-01-11T02:27:48.225Z,-8.98
2024-01-11T02:30:50.217Z,-8.00
2024-01-11T02:33:53.083Z,-8.64
2024-01-11T02:36:54.748Z,-7.95
2024-01-11T02:39:58.225Z,-8.23
2024-01-11T02:43:08.838Z,-7.80
2024-01-11T02:46:10.593Z,-8.46
2024-01-11T02:49:12.446Z,-7.37
2024-01-11T02:52:14.229Z,-6.91
2024-01-11T02:55:17.624Z,-7.21
2024-01-11T02:58:19.355Z,-7.52
2024-01-11T03:01:21.440Z,-7.82
2024-01-11T03:04:23.291Z,-7.96
2024-01-11T03:07:25.090Z,-8.00
2024-01-11T03:10:28.230Z,-8.02
2024-01-11T03:13:30.164Z,-8.14
2024-01-11T03:16:31.896Z,-8.25
2024-01-11T03:19:33.828Z,-8.36
2024-01-11T03:22:35.636Z,-8.23
2024-01-11T03:25:45.595Z,-8.38
2024-01-11T03:28:47.426Z,-8.76
2024-01-11T03:31:49.183Z,-8.50
2024-01-11T03:34:51.003Z,-8.96
2024-01-11T03:37:52.805Z,-8.44
2024-01-11T03:40:56.001Z,-8.35
2024-01-11T03:43:57.955Z,-8.15
2024-01-11T03:46:59.764Z,-8.05
2024-01-11T03:50:01.594Z,-8.10
2024-01-11T03:53:03.605Z,-8.95
2024-01-11T03:56:07.207Z,-8.60
2024-01-11T03:59:09.012Z,-8.46
2024-01-11T04:02:10.929Z,-8.50
2024-01-11T04:05:12.935Z,-8.57
2024-01-11T04:08:14.889Z,-8.91
2024-01-11T04:11:18.681Z,-8.45
2024-01-11T04:14:20.582Z,-8.42
2024-01-11T04:17:22.459Z,-9.18
2024-01-11T04:20:24.464Z,-8.18
2024-01-11T04:23:26.417Z,-8.11
2024-01-11T04:26:29.514Z,-8.96
2024-01-11T04:29:31.315Z,-8.82
2024-01-11T04:32:33.228Z,-8.68
2024-01-11T04:35:35.103Z,-8.85
2024-01-11T04:38:37.076Z,-9.62
2024-01-11T04:41:40.786Z,-8.78
2024-01-11T04:44:42.751Z,-8.70
2024-01-11T04:47:44.950Z,-8.56
2024-01-11T04:50:46.809Z,-9.13
2024-01-11T04:53:48.832Z,-9.43
2024-01-11T04:56:52.012Z,-8.39
2024-01-11T04:59:53.900Z,-9.15
2024-01-11T05:02:56.127Z,-8.34
2024-01-11T05:05:58.395Z,-8.22
2024-01-11T05:09:00.258Z,-9.25
2024-01-11T05:12:03.853Z,-10.20
2024-01-11T05:15:06.841Z,-8.65
2024-01-11T05:18:08.961Z,-8.41
2024-01-11T05:21:10.802Z,-8.27
2024-01-11T05:24:12.693Z,-8.91
2024-01-11T05:27:15.884Z,-8.43
2024-01-11T05:30:17.902Z,-8.86
2024-01-11T05:33:19.796Z,-7.92
2024-01-11T05:36:21.763Z,-8.36
2024-01-11T05:39:23.517Z,-7.59
2024-01-11T05:42:27.036Z,-8.08
2024-01-11T05:45:36.187Z,-7.99
2024-01-11T05:48:48.199Z,-8.07
2024-01-11T05:51:50.091Z,-8.04
2024-01-11T05:54:51.958Z,-8.75
2024-01-11T05:57:55.212Z,-7.85
2024-01-11T06:00:57.127Z,-8.05
2024-01-11T06:03:58.968Z,-7.85
2024-01-11T06:07:00.949Z,-8.87
2024-01-11T06:10:02.775Z,-8.09
2024-01-11T06:13:06.160Z,-8.29
2024-01-11T06:16:09.959Z,-8.48
2024-01-11T06:19:13.339Z,-8.26
2024-01-11T06:22:15.245Z,-7.96
2024-01-11T06:25:23.517Z,-7.96
2024-01-11T06:28:26.648Z,-7.92
2024-01-11T06:31:28.520Z,-7.90
2024-01-11T06:34:30.331Z,-8.45
2024-01-11T06:37:32.146Z,-9.07
2024-01-11T06:40:33.858Z,-7.84
2024-01-11T06:43:37.132Z,-7.84
2024-01-11T06:46:39.372Z,-7.84
2024-01-11T06:49:42.406Z,-7.84
2024-01-11T06:52:43.946Z,-7.87
2024-01-11T06:55:45.929Z,-7.80
2024-01-11T06:58:49.151Z,-8.61
2024-01-11T07:01:51.135Z,-7.70
2024-01-11T07:04:53.109Z,-7.69
2024-01-11T07:07:55.082Z,-7.71
2024-01-11T07:10:57.108Z,-7.68
2024-01-11T07:14:00.617Z,-7.71
2024-01-11T07:17:02.431Z,-7.73
2024-01-11T07:20:05.039Z,-7.72
2024-01-11T07:23:06.856Z,-7.67
2024-01-11T07:26:08.876Z,-7.65
2024-01-11T07:29:12.117Z,-7.64
2024-01-11T07:32:13.881Z,-7.58
2024-01-11T07:35:18.973Z,-7.72
2024-01-11T07:38:21.318Z,-7.64
2024-01-11T07:41:23.191Z,-7.72
2024-01-11T07:44:26.452Z,-7.81
2024-01-11T07:47:28.416Z,-7.77
2024-01-11T07:50:30.607Z,-7.96
2024-01-11T07:53:32.484Z,-7.83
2024-01-11T07:56:34.472Z,-8.95
2024-01-11T07:59:37.752Z,-8.73
2024-01-11T08:02:39.684Z,-7.77
2024-01-11T08:05:41.685Z,-7.73
2024-01-11T08:08:43.518Z,-7.72
2024-01-11T08:11:50.413Z,-7.62
2024-01-11T08:14:54.579Z,-7.58
2024-01-11T08:17:56.323Z,-7.52
2024-01-11T08:20:58.107Z,-7.76
2024-01-11T08:24:02.885Z,-7.55
2024-01-11T08:27:05.973Z,-7.55
2024-01-11T08:30:11.092Z,-7.56
2024-01-11T08:33:13.231Z,-7.65
2024-01-11T08:36:15.161Z,-7.63
2024-01-11T08:39:17.002Z,-7.60
2024-01-11T08:42:18.698Z,-7.57
2024-01-11T08:45:21.825Z,-7.43
2024-01-11T08:48:23.682Z,-7.32
2024-01-11T08:51:25.561Z,-7.55
2024-01-11T08:54:27.259Z,-7.28
2024-01-11T08:57:29.153Z,-7.27
2024-01-11T09:00:32.425Z,-7.19
2024-01-11T09:03:34.467Z,-7.45
2024-01-11T09:06:36.500Z,-7.29
2024-01-11T09:09:44.473Z,-7.70
2024-01-11T09:12:52.626Z,-7.59
2024-01-11T09:15:56.196Z,-8.10
2024-01-11T09:18:57.998Z,-7.22
2024-01-11T09:21:59.928Z,-7.59
2024-01-11T09:25:01.731Z,-6.96
2024-01-11T09:28:03.995Z,-6.86
2024-01-11T09:31:07.455Z,-7.28
2024-01-11T09:34:09.436Z,-6.74
2024-01-11T09:37:11.408Z,-6.70
2024-01-11T09:40:13.933Z,-6.84
2024-01-11T09:43:16.636Z,-6.78
2024-01-11T09:46:20.069Z,-9.37
2024-01-11T09:49:23.584Z,-6.86
2024-01-11T09:52:27.348Z,-6.50
2024-01-11T09:55:29.106Z,-6.36
2024-01-11T09:58:31.060Z,-6.25
2024-01-11T10:01:34.419Z,-6.30
2024-01-11T10:04:36.592Z,-6.00
2024-01-11T10:07:39.140Z,-5.86
2024-01-11T10:10:41.710Z,-5.94
2024-01-11T10:13:44.179Z,-5.58
2024-01-11T10:16:49.187Z,-6.81
2024-01-11T10:19:51.149Z,-6.49
2024-01-11T10:22:57.295Z,-6.64
2024-01-11T10:26:00.640Z,-6.88
2024-01-11T10:29:03.580Z,-5.20
2024-01-11T10:32:15.044Z,-5.15
2024-01-11T10:35:20.083Z,-6.54
2024-01-11T10:38:28.097Z,-5.06
2024-01-11T10:41:40.514Z,-5.64
2024-01-11T10:48:17.104Z,-5.98
2024-01-11T10:51:29.056Z,-6.36
2024-01-11T10:54:34.779Z,-5.93
2024-01-11T11:07:11.094Z,-4.33
2024-01-11T11:13:33.119Z,-4.12
2024-01-11T11:20:16.198Z,-5.11
2024-01-11T11:23:22.135Z,-5.01
2024-01-11T11:26:30.773Z,-4.89
2024-01-11T11:42:52.036Z,-5.69
2024-01-11T11:55:49.657Z,-7.22
2024-01-11T12:12:32.486Z,-7.26
2024-01-11T12:25:40.706Z,-6.41
2024-01-11T13:15:54.024Z,-4.32
2024-01-11T13:29:05.136Z,-5.17
2024-01-11T13:39:23.276Z,-3.66
2024-01-11T13:42:26.947Z,-3.09
2024-01-11T13:49:05.146Z,-2.27
2024-01-11T14:02:05.288Z,-2.22
2024-01-11T14:08:12.491Z,-2.56
2024-01-11T14:14:31.770Z,-5.59
2024-01-11T14:24:07.159Z,-3.17
2024-01-11T14:27:23.392Z,-5.33
2024-01-11T14:30:36.079Z,-6.04
2024-01-11T14:43:56.379Z,-3.54
2024-01-11T15:54:10.709Z,-8.32
2024-01-11T16:35:59.648Z,-5.47
2024-01-11T16:58:58.903Z,-9.02
2024-01-11T17:02:10.022Z,-5.83
2024-01-11T17:08:33.326Z,-6.20
2024-01-11T17:11:40.974Z,-6.11
2024-01-11T17:14:44.405Z,-6.74
2024-01-11T17:17:49.080Z,-7.36
2024-01-11T17:20:54.758Z,-6.16
2024-01-11T17:24:02.068Z,-6.19
2024-01-11T17:27:05.384Z,-6.91
2024-01-11T17:30:11.427Z,-7.72
2024-01-11T17:33:20.229Z,-6.49
2024-01-11T17:36:22.129Z,-6.93
2024-01-11T17:39:26.422Z,-6.45
2024-01-11T17:42:29.343Z,-6.49
2024-01-11T17:45:31.157Z,-6.49
2024-01-11T17:48:34.826Z,-6.51
2024-01-11T17:51:37.936Z,-8.00
2024-01-11T17:54:39.998Z,-6.47
2024-01-11T17:57:42.108Z,-7.04
2024-01-11T18:00:44.200Z,-7.34
2024-01-11T18:03:47.424Z,-8.43
2024-01-11T18:06:49.511Z,-6.79
2024-01-11T18:09:52.907Z,-8.21
2024-01-11T18:12:54.692Z,-6.74
2024-01-11T18:15:56.389Z,-7.21
2024-01-11T18:18:59.932Z,-6.91
2024-01-11T18:22:01.779Z,-7.00
2024-01-11T18:25:10.800Z,-7.07
2024-01-11T18:28:12.732Z,-7.08
2024-01-11T18:31:15.276Z,-7.87
2024-01-11T18:34:19.594Z,-8.57
2024-01-11T18:37:21.597Z,-7.49
2024-01-11T18:40:25.132Z,-7.21
2024-01-11T18:43:27.769Z,-7.11
2024-01-11T18:46:30.034Z,-7.24
2024-01-11T18:49:33.352Z,-9.35
2024-01-11T18:52:35.356Z,-7.37
2024-01-11T18:55:37.074Z,-6.98
2024-01-11T18:58:38.862Z,-7.32
2024-01-11T19:01:41.483Z,-6.90
2024-01-11T19:04:44.844Z,-7.30
2024-01-11T19:07:46.917Z,-7.65
2024-01-11T19:10:48.721Z,-7.39
2024-01-11T19:13:50.531Z,-6.97
2024-01-11T19:16:52.333Z,-6.99
2024-01-11T19:19:55.808Z,-7.23
2024-01-11T19:22:57.758Z,-7.39
2024-01-11T19:25:59.910Z,-7.02
2024-01-11T19:29:01.705Z,-7.62
2024-01-11T19:32:03.794Z,-9.48
2024-01-11T19:35:08.132Z,-7.14
2024-01-11T19:38:10.066Z,-7.92
2024-01-11T19:41:11.937Z,-8.15
2024-01-11T19:44:14.066Z,-7.80
2024-01-11T19:47:16.027Z,-7.39
2024-01-11T19:50:19.490Z,-7.26
2024-01-11T19:53:21.300Z,-7.31
2024-01-11T19:56:24.061Z,-7.41
2024-01-11T19:59:25.719Z,-7.41
2024-01-11T20:02:27.854Z,-7.84
2024-01-11T20:05:31.239Z,-7.46
2024-01-11T20:08:33.310Z,-8.26
2024-01-11T20:11:35.171Z,-7.55
2024-01-11T20:14:37.659Z,-7.68
2024-01-11T20:17:39.689Z,-7.72
2024-01-11T20:20:43.166Z,-7.73
2024-01-11T20:23:45.448Z,-8.60
2024-01-11T20:26:47.392Z,-7.96
2024-01-11T20:29:49.309Z,-7.98
2024-01-11T20:32:51.496Z,-8.81
2024-01-11T20:35:54.815Z,-8.46
2024-01-11T20:38:57.287Z,-7.90
2024-01-11T20:41:59.138Z,-7.82
2024-01-11T20:45:01.156Z,-9.15
2024-01-11T20:48:03.305Z,-8.64
2024-01-11T20:51:06.649Z,-9.01
2024-01-11T20:54:08.971Z,-7.91
2024-01-11T20:57:10.765Z,-7.91
2024-01-11T21:00:13.906Z,-7.77
2024-01-11T21:03:15.809Z,-8.83
2024-01-11T21:06:19.047Z,-8.12
2024-01-11T21:09:20.897Z,-8.51
2024-01-11T21:12:22.696Z,-8.09
2024-01-11T21:15:24.718Z,-8.30
2024-01-11T21:18:26.606Z,-7.93
2024-01-11T21:21:29.990Z,-7.92
2024-01-11T21:24:31.769Z,-8.23
2024-01-11T21:27:33.544Z,-7.92
2024-01-11T21:30:35.306Z,-8.12
2024-01-11T21:33:42.938Z,-7.96
2024-01-11T21:36:46.544Z,-7.98
2024-01-11T21:39:48.309Z,-8.04
2024-01-11T21:42:50.035Z,-8.09
2024-01-11T21:45:51.787Z,-8.08
2024-01-11T21:48:54.182Z,-8.07
2024-01-11T21:51:57.426Z,-8.65
2024-01-11T21:54:59.097Z,-8.08
2024-01-11T21:58:00.868Z,-8.08
2024-01-11T22:01:03.173Z,-9.00
2024-01-11T22:04:05.202Z,-8.22
2024-01-11T22:07:10.192Z,-8.06
2024-01-11T22:10:12.645Z,-8.42
2024-01-11T22:13:14.995Z,-8.23
2024-01-11T22:16:16.733Z,-9.51
2024-01-11T22:19:18.701Z,-9.75
2024-01-11T22:22:21.967Z,-8.87
2024-01-11T22:25:24.173Z,-8.67
2024-01-11T22:28:26.027Z,-9.66
2024-01-11T22:31:32.399Z,-8.79
2024-01-11T22:34:34.232Z,-8.85
2024-01-11T22:37:37.835Z,-10.06
2024-01-11T22:40:39.631Z,-8.82
2024-01-11T22:43:41.364Z,-8.78
2024-01-11T22:46:43.211Z,-8.77
2024-01-11T22:49:45.016Z,-9.29
2024-01-11T22:52:48.313Z,-9.21
2024-01-11T22:55:50.193Z,-8.54
2024-01-11T22:58:52.151Z,-8.54
2024-01-11T23:01:54.033Z,-9.14
2024-01-11T23:04:55.792Z,-8.69
2024-01-11T23:07:59.080Z,-8.73
2024-01-11T23:11:00.950Z,-10.04
2024-01-11T23:14:02.940Z,-9.56
2024-01-11T23:17:04.916Z,-8.78
2024-01-11T23:20:08.144Z,-8.76
2024-01-11T23:23:11.526Z,-8.72
2024-01-11T23:26:13.396Z,-8.69
2024-01-11T23:29:15.183Z,-8.77
2024-01-11T23:32:17.123Z,-8.98
2024-01-11T23:35:19.113Z,-9.12
2024-01-11T23:38:22.355Z,-9.29
2024-01-11T23:41:24.253Z,-9.16
2024-01-11T23:44:26.137Z,-9.09
2024-01-11T23:47:29.596Z,-9.52
2024-01-11T23:50:32.542Z,-8.96
2024-01-11T23:53:35.838Z,-8.99
2024-01-11T23:56:40.583Z,-10.20
2024-01-11T23:59:42.816Z,-8.94
